Red Shirt, South Dakota
Current Conditions -  °F | °C
As of 8:52 AM on Thursday 23 Oct 2014 (Local Time) from KRAP Reporting Station
Clear Clear  
Wind Chill: 44°   Ceiling: Unl
Heat Index: 46°   Visibility: 10mi
Dew Point: 28°   Wind: 5mph
Humidity: 50%   Direction: 160°SSE
Pressure: 29.99"   Gusts: NA
Location:  43.7793°N, 103.069°W
Report Text: KRAP 231452Z 16004KT 10SM CLR 08/M02 A2999 RMK AO2 SLP164 T00781022 53002
Loading
Personal Weather Stations






























Interactive Weather Map
Tropical Storm Tracking
New forecast layout! Learn more

10-Day Weather Forecast

Advertisements
Track Severe Weather on mobile